Aviation Digital Data Service (ADDS)

Output produced by METARs form (1826 UTC 16 August 2018)
found at http://www.aviationweather.gov/adds/metars/
 
TAF TNCA 161800Z 1618/1718 10017KT 9999 SCT020